Eldorado — WDE8374 — position and weather

sailwx.info

Track history (hours):
 
Tides and Currents Weather Stations Pressure Air Temp Water Temp Dewpoint Dewpoint Depression Visibility Wind Speed Wind Dir Waves Ship Positions

Eldorado

Owner: FUKUTO / REDLEW CHARTERS, INC., CYPRESS, CA. More information available from US FCC via Universal Licensing System and Coast Guard Vessel Documentation Center.

Last reported at 2018-Jan-01 02:57 UTC. Time now 2018-Jan-21 18:13 UTC.
Position N 33°46' W 118°13'.
Warning: this ship's position is 20 days out of date.

Length 28 m.

Type: Passenger vessel. MMSI: 367404740.

Date/timePositionNaut miles runAvg speedWind from/ knotsBaromVisibWave heightAir tempDewpointWater temp
2018-Jan-01 02:57N 33°46' W 118°13'67 4.7
2017-Dec-31 12:37N 33°15' W 119°25'0 3.4
2017-Dec-31 12:30N 33°15' W 119°25'5 9.5
2017-Dec-31 12:00N 33°17' W 119°19'5 9.3
2017-Dec-31 11:30N 33°19' W 119°14'5 9.4
2017-Dec-31 11:00N 33°21' W 119°09'5 9.5
2017-Dec-31 10:30N 33°23' W 119°04'5 9.7
2017-Dec-31 10:00N 33°25' W 118°59'5 9.4
2017-Dec-31 09:30N 33°27' W 118°54'4 9.0
2017-Dec-31 09:00N 33°29' W 118°49'5 9.4
2017-Dec-31 08:28N 33°31' W 118°43'5 9.3
2017-Dec-31 07:59N 33°33' W 118°38'5 9.4
2017-Dec-31 07:30N 33°35' W 118°34'5 9.4
2017-Dec-31 07:00N 33°37' W 118°28'5 9.5
2017-Dec-31 06:30N 33°39' W 118°23'5 9.4
2017-Dec-31 06:00N 33°41' W 118°18'6 8.7
2017-Dec-31 05:21N 33°45' W 118°13'1 0.5
2017-Dec-31 02:30N 33°46' W 118°13'13 8.8
2017-Dec-31 01:04N 33°39' W 118°25'1810.1
2017-Dec-30 23:20N 33°32' W 118°45'310.0
2017-Dec-30 23:00N 33°31' W 118°49'5 9.5
2017-Dec-30 22:29N 33°29' W 118°54'35 6.3
2017-Dec-30 16:59N 33°18' W 119°33'1 2.1
2017-Dec-30 16:30N 33°18' W 119°32'0 0.3
2017-Dec-30 16:00N 33°18' W 119°32'0 0.3
2017-Dec-30 15:30N 33°18' W 119°32'1 1.0
2017-Dec-30 15:00N 33°18' W 119°32'0 0.0
2017-Dec-30 14:30N 33°18' W 119°32'0 0.0
2017-Dec-30 14:00N 33°18' W 119°32'0 0.1
2017-Dec-30 13:30N 33°18' W 119°32'0 0.2
2017-Dec-30 13:00N 33°18' W 119°32'3 6.4
2017-Dec-30 12:30N 33°19' W 119°28'5 9.3
2017-Dec-30 12:00N 33°21' W 119°23'5 9.6
2017-Dec-30 11:30N 33°22' W 119°18'5 9.6
2017-Dec-30 11:00N 33°24' W 119°12'5 9.8
2017-Dec-30 10:29N 33°26' W 119°06'5 9.6
2017-Dec-30 10:00N 33°27' W 119°01'5 9.8
2017-Dec-30 09:29N 33°29' W 118°56'5 9.5
2017-Dec-30 09:00N 33°31' W 118°50'5 9.6
2017-Dec-30 08:26N 33°33' W 118°44'4 9.6
2017-Dec-30 08:00N 33°34' W 118°40'5 9.6
2017-Dec-30 07:29N 33°36' W 118°34'5 9.7
2017-Dec-30 07:00N 33°38' W 118°29'6 1.0
2017-Dec-30 01:13N 33°40' W 118°22'410.3
2017-Dec-30 00:51N 33°38' W 118°27'310.1
2017-Dec-30 00:30N 33°37' W 118°31'510.2
2017-Dec-30 00:00N 33°36' W 118°36'610.3
2017-Dec-29 23:25N 33°33' W 118°43'43 7.1
2017-Dec-29 17:19N 33°18' W 119°32'0 0.7
2017-Dec-29 17:00N 33°18' W 119°32'0 0.4
2017-Dec-29 16:30N 33°18' W 119°32'0 0.3
2017-Dec-29 15:59N 33°18' W 119°32'0 0.3
2017-Dec-29 15:30N 33°18' W 119°32'0 0.0
2017-Dec-29 15:00N 33°18' W 119°32'0 0.0
2017-Dec-29 14:30N 33°18' W 119°32'0 0.0
2017-Dec-29 14:00N 33°18' W 119°32'0 0.1
2017-Dec-29 13:30N 33°18' W 119°32'1 1.2
2017-Dec-29 13:00N 33°18' W 119°31'4 8.7
2017-Dec-29 12:30N 33°20' W 119°26'4 9.1
2017-Dec-29 12:00N 33°21' W 119°21'5 9.2
2017-Dec-29 11:30N 33°23' W 119°16'5 9.2
2017-Dec-29 11:00N 33°25' W 119°11'5 9.1
2017-Dec-29 10:28N 33°26' W 119°05'4 9.3
2017-Dec-29 09:59N 33°28' W 119°00'4 9.2
2017-Dec-29 09:30N 33°29' W 118°55'5 9.1
2017-Dec-29 09:00N 33°31' W 118°50'4 9.1
2017-Dec-29 08:30N 33°33' W 118°45'5 9.1
2017-Dec-29 08:00N 33°34' W 118°40'25 8.7
2017-Dec-29 05:09N 33°45' W 118°13'1 6.6
2017-Dec-29 05:00N 33°46' W 118°13'0 0.1
2017-Dec-29 02:56N 33°46' W 118°13'9 8.3
2017-Dec-29 01:48N 33°40' W 118°22'10 9.9
2017-Dec-29 00:47N 33°37' W 118°33'310.2
2017-Dec-29 00:30N 33°36' W 118°36'510.0
2017-Dec-29 00:00N 33°34' W 118°42'5 9.7
2017-Dec-28 23:27N 33°32' W 118°48'5 9.7
2017-Dec-28 22:57N 33°30' W 118°53'4 9.8
2017-Dec-28 22:30N 33°29' W 118°58'5 9.9
2017-Dec-28 21:58N 33°27' W 119°04'5 9.9
2017-Dec-28 21:30N 33°25' W 119°09'510.0
2017-Dec-28 21:00N 33°24' W 119°15'5 9.9
2017-Dec-28 20:30N 33°22' W 119°21'5 9.9
2017-Dec-28 20:00N 33°20' W 119°26'8 1.5
2017-Dec-28 14:54N 33°18' W 119°35'0 0.5
2017-Dec-28 14:30N 33°18' W 119°35'0 0.0
2017-Dec-28 14:00N 33°18' W 119°35'0 0.8
2017-Dec-28 13:30N 33°18' W 119°34'2 3.2
2017-Dec-28 13:00N 33°19' W 119°32'5 9.2
2017-Dec-28 12:30N 33°20' W 119°27'5 9.4
2017-Dec-28 12:00N 33°22' W 119°22'5 9.5
2017-Dec-28 11:30N 33°23' W 119°16'5 9.5
2017-Dec-28 11:00N 33°25' W 119°11'5 9.3
2017-Dec-28 10:30N 33°26' W 119°06'6 9.6
2017-Dec-28 09:55N 33°28' W 118°59'4 9.5
2017-Dec-28 09:30N 33°29' W 118°55'5 9.6
2017-Dec-28 09:00N 33°31' W 118°50'5 9.5
2017-Dec-28 08:30N 33°33' W 118°44'8 9.5
2017-Dec-28 07:39N 33°36' W 118°35'2 9.5
2017-Dec-28 07:27N 33°36' W 118°33'5 9.4
2017-Dec-28 06:57N 33°38' W 118°28'4 9.3
2017-Dec-28 06:29N 33°40' W 118°23'10 8.0
2017-Dec-28 05:14N 33°45' W 118°13'21 4.6
2017-Dec-28 00:39N 33°36' W 118°36'210.1
2017-Dec-28 00:29N 33°35' W 118°38'510.0
2017-Dec-28 00:00N 33°33' W 118°43'5 9.9
2017-Dec-27 23:30N 33°32' W 118°49'510.0
2017-Dec-27 23:00N 33°30' W 118°54'610.1
2017-Dec-27 22:27N 33°28' W 119°00'510.1
2017-Dec-27 21:59N 33°26' W 119°06'510.1
2017-Dec-27 21:29N 33°24' W 119°11'35 2.6
2017-Dec-27 08:03N 33°27' W 118°30'0 0.6
2017-Dec-27 07:53N 33°27' W 118°30'3 8.9
2017-Dec-27 07:30N 33°30' W 118°27'510.1
2017-Dec-27 06:59N 33°33' W 118°23'510.2
2017-Dec-27 06:28N 33°38' W 118°19'9 6.2
2017-Dec-27 05:03N 33°45' W 118°13'0 6.9
2017-Dec-27 05:00N 33°45' W 118°13'2 0.5
2017-Dec-27 00:24N 33°43' W 118°14'3 1.3
2017-Dec-26 22:22N 33°46' W 118°13'  
2017-Dec-24 09:59N 33°24' W 119°02'4 9.1
2017-Dec-24 09:30N 33°26' W 118°57'5 9.4
2017-Dec-24 09:00N 33°28' W 118°52'5 9.5
2017-Dec-24 08:30N 33°30' W 118°47'5 9.4
2017-Dec-24 08:00N 33°32' W 118°42'5 9.4
2017-Dec-24 07:30N 33°34' W 118°37'8 9.4
2017-Dec-24 06:40N 33°37' W 118°28'2 9.1
2017-Dec-24 06:27N 33°38' W 118°26'13 8.1
2017-Dec-24 04:50N 33°45' W 118°13'32 6.3
2017-Dec-23 23:48N 33°32' W 118°47'3 9.7
2017-Dec-23 23:30N 33°31' W 118°51'510.1
2017-Dec-23 23:00N 33°29' W 118°56'510.1
2017-Dec-23 22:30N 33°28' W 119°02'510.4
2017-Dec-23 22:00N 33°26' W 119°08'510.2
2017-Dec-23 21:30N 33°24' W 119°14'5 9.9
2017-Dec-23 21:00N 33°23' W 119°19'5 9.9
2017-Dec-23 20:30N 33°21' W 119°25'12 7.4
2017-Dec-23 18:50N 33°17' W 119°39'1 1.9
2017-Dec-23 18:28N 33°18' W 119°38'0 0.7
2017-Dec-23 18:01N 33°18' W 119°39'1 2.2
2017-Dec-23 17:30N 33°18' W 119°37'1 1.8
2017-Dec-23 17:00N 33°18' W 119°36'0 0.3
2017-Dec-23 16:30N 33°18' W 119°36'0 0.5
2017-Dec-23 16:00N 33°18' W 119°36'0 0.6
2017-Dec-23 15:30N 33°18' W 119°36'1 1.1
2017-Dec-23 14:46N 33°18' W 119°35'0 0.0
2017-Dec-23 14:30N 33°18' W 119°35'0 0.0
2017-Dec-23 14:00N 33°18' W 119°35'2 3.0
2017-Dec-23 13:30N 33°18' W 119°33'4 8.5
2017-Dec-23 13:00N 33°20' W 119°28'4 8.6
2017-Dec-23 12:30N 33°21' W 119°23'4 8.4
2017-Dec-23 12:00N 33°22' W 119°18'4 8.6
2017-Dec-23 11:30N 33°23' W 119°13'4 8.6
2017-Dec-23 10:59N 33°24' W 119°08'5 9.2
2017-Dec-23 10:29N 33°26' W 119°03'4 9.2
2017-Dec-23 10:00N 33°27' W 118°58'5 9.4
2017-Dec-23 09:30N 33°29' W 118°53'5 9.5
2017-Dec-23 09:00N 33°31' W 118°48'29 4.3
2017-Dec-23 02:16N 33°41' W 118°15'3410.3
2017-Dec-22 22:57N 33°30' W 118°54'511.0
2017-Dec-22 22:30N 33°28' W 118°59'510.7
2017-Dec-22 22:00N 33°26' W 119°05'510.7
2017-Dec-22 21:30N 33°24' W 119°11'510.3
2017-Dec-22 21:00N 33°22' W 119°17'510.2
2017-Dec-22 20:30N 33°20' W 119°23'6 1.5
2017-Dec-22 16:44N 33°16' W 119°27'0 0.6
2017-Dec-22 16:28N 33°16' W 119°26'1 1.5
2017-Dec-22 15:59N 33°15' W 119°26'0 0.2
2017-Dec-22 14:18N 33°15' W 119°26'1 1.4
2017-Dec-22 13:51N 33°15' W 119°25'0 0.2
2017-Dec-22 13:30N 33°15' W 119°25'0 0.3
2017-Dec-22 12:59N 33°15' W 119°25'3 6.4
2017-Dec-22 12:30N 33°16' W 119°22'5 9.1
2017-Dec-22 12:00N 33°18' W 119°17'5 9.0
2017-Dec-22 11:30N 33°21' W 119°12'5 9.1
2017-Dec-22 11:00N 33°22' W 119°07'5 9.2
2017-Dec-22 10:30N 33°24' W 119°02'5 9.1
2017-Dec-22 10:00N 33°26' W 118°57'5 9.2
2017-Dec-22 09:30N 33°27' W 118°52'5 9.3
2017-Dec-22 09:00N 33°29' W 118°47'5 9.3
2017-Dec-22 08:30N 33°32' W 118°42'5 9.1
2017-Dec-22 07:59N 33°34' W 118°37'  
Track history (hours):
 
Tides and Currents Weather Stations Pressure Air Temp Water Temp Dewpoint Dewpoint Depression Visibility Wind Speed Wind Dir Waves Ship Positions

Eldorado

Owner: FUKUTO / REDLEW CHARTERS, INC., CYPRESS, CA. More information available from US FCC via Universal Licensing System and Coast Guard Vessel Documentation Center.

Last reported at 2018-Jan-01 02:57 UTC. Time now 2018-Jan-21 18:13 UTC.
Position N 33°46' W 118°13'.
Warning: this ship's position is 20 days out of date.

Length 28 m.

Type: Passenger vessel. MMSI: 367404740.

Date/timePositionNaut miles runAvg speedWind from/ knotsBaromVisibWave heightAir tempDewpointWater temp
2018-Jan-01 02:57N 33°46' W 118°13'67 4.7
2017-Dec-31 12:37N 33°15' W 119°25'0 3.4
2017-Dec-31 12:30N 33°15' W 119°25'5 9.5
2017-Dec-31 12:00N 33°17' W 119°19'5 9.3
2017-Dec-31 11:30N 33°19' W 119°14'5 9.4
2017-Dec-31 11:00N 33°21' W 119°09'5 9.5
2017-Dec-31 10:30N 33°23' W 119°04'5 9.7
2017-Dec-31 10:00N 33°25' W 118°59'5 9.4
2017-Dec-31 09:30N 33°27' W 118°54'4 9.0
2017-Dec-31 09:00N 33°29' W 118°49'5 9.4
2017-Dec-31 08:28N 33°31' W 118°43'5 9.3
2017-Dec-31 07:59N 33°33' W 118°38'5 9.4
2017-Dec-31 07:30N 33°35' W 118°34'5 9.4
2017-Dec-31 07:00N 33°37' W 118°28'5 9.5
2017-Dec-31 06:30N 33°39' W 118°23'5 9.4
2017-Dec-31 06:00N 33°41' W 118°18'6 8.7
2017-Dec-31 05:21N 33°45' W 118°13'1 0.5
2017-Dec-31 02:30N 33°46' W 118°13'13 8.8
2017-Dec-31 01:04N 33°39' W 118°25'1810.1
2017-Dec-30 23:20N 33°32' W 118°45'310.0
2017-Dec-30 23:00N 33°31' W 118°49'5 9.5
2017-Dec-30 22:29N 33°29' W 118°54'35 6.3
2017-Dec-30 16:59N 33°18' W 119°33'1 2.1
2017-Dec-30 16:30N 33°18' W 119°32'0 0.3
2017-Dec-30 16:00N 33°18' W 119°32'0 0.3
2017-Dec-30 15:30N 33°18' W 119°32'1 1.0
2017-Dec-30 15:00N 33°18' W 119°32'0 0.0
2017-Dec-30 14:30N 33°18' W 119°32'0 0.0
2017-Dec-30 14:00N 33°18' W 119°32'0 0.1
2017-Dec-30 13:30N 33°18' W 119°32'0 0.2
2017-Dec-30 13:00N 33°18' W 119°32'3 6.4
2017-Dec-30 12:30N 33°19' W 119°28'5 9.3
2017-Dec-30 12:00N 33°21' W 119°23'5 9.6
2017-Dec-30 11:30N 33°22' W 119°18'5 9.6
2017-Dec-30 11:00N 33°24' W 119°12'5 9.8
2017-Dec-30 10:29N 33°26' W 119°06'5 9.6
2017-Dec-30 10:00N 33°27' W 119°01'5 9.8
2017-Dec-30 09:29N 33°29' W 118°56'5 9.5
2017-Dec-30 09:00N 33°31' W 118°50'5 9.6
2017-Dec-30 08:26N 33°33' W 118°44'4 9.6
2017-Dec-30 08:00N 33°34' W 118°40'5 9.6
2017-Dec-30 07:29N 33°36' W 118°34'5 9.7
2017-Dec-30 07:00N 33°38' W 118°29'6 1.0
2017-Dec-30 01:13N 33°40' W 118°22'410.3
2017-Dec-30 00:51N 33°38' W 118°27'310.1
2017-Dec-30 00:30N 33°37' W 118°31'510.2
2017-Dec-30 00:00N 33°36' W 118°36'610.3
2017-Dec-29 23:25N 33°33' W 118°43'43 7.1
2017-Dec-29 17:19N 33°18' W 119°32'0 0.7
2017-Dec-29 17:00N 33°18' W 119°32'0 0.4
2017-Dec-29 16:30N 33°18' W 119°32'0 0.3
2017-Dec-29 15:59N 33°18' W 119°32'0 0.3
2017-Dec-29 15:30N 33°18' W 119°32'0 0.0
2017-Dec-29 15:00N 33°18' W 119°32'0 0.0
2017-Dec-29 14:30N 33°18' W 119°32'0 0.0
2017-Dec-29 14:00N 33°18' W 119°32'0 0.1
2017-Dec-29 13:30N 33°18' W 119°32'1 1.2
2017-Dec-29 13:00N 33°18' W 119°31'4 8.7
2017-Dec-29 12:30N 33°20' W 119°26'4 9.1
2017-Dec-29 12:00N 33°21' W 119°21'5 9.2
2017-Dec-29 11:30N 33°23' W 119°16'5 9.2
2017-Dec-29 11:00N 33°25' W 119°11'5 9.1
2017-Dec-29 10:28N 33°26' W 119°05'4 9.3
2017-Dec-29 09:59N 33°28' W 119°00'4 9.2
2017-Dec-29 09:30N 33°29' W 118°55'5 9.1
2017-Dec-29 09:00N 33°31' W 118°50'4 9.1
2017-Dec-29 08:30N 33°33' W 118°45'5 9.1
2017-Dec-29 08:00N 33°34' W 118°40'25 8.7
2017-Dec-29 05:09N 33°45' W 118°13'1 6.6
2017-Dec-29 05:00N 33°46' W 118°13'0 0.1
2017-Dec-29 02:56N 33°46' W 118°13'9 8.3
2017-Dec-29 01:48N 33°40' W 118°22'10 9.9
2017-Dec-29 00:47N 33°37' W 118°33'310.2
2017-Dec-29 00:30N 33°36' W 118°36'510.0
2017-Dec-29 00:00N 33°34' W 118°42'5 9.7
2017-Dec-28 23:27N 33°32' W 118°48'5 9.7
2017-Dec-28 22:57N 33°30' W 118°53'4 9.8
2017-Dec-28 22:30N 33°29' W 118°58'5 9.9
2017-Dec-28 21:58N 33°27' W 119°04'5 9.9
2017-Dec-28 21:30N 33°25' W 119°09'510.0
2017-Dec-28 21:00N 33°24' W 119°15'5 9.9
2017-Dec-28 20:30N 33°22' W 119°21'5 9.9
2017-Dec-28 20:00N 33°20' W 119°26'8 1.5
2017-Dec-28 14:54N 33°18' W 119°35'0 0.5
2017-Dec-28 14:30N 33°18' W 119°35'0 0.0
2017-Dec-28 14:00N 33°18' W 119°35'0 0.8
2017-Dec-28 13:30N 33°18' W 119°34'2 3.2
2017-Dec-28 13:00N 33°19' W 119°32'5 9.2
2017-Dec-28 12:30N 33°20' W 119°27'5 9.4
2017-Dec-28 12:00N 33°22' W 119°22'5 9.5
2017-Dec-28 11:30N 33°23' W 119°16'5 9.5
2017-Dec-28 11:00N 33°25' W 119°11'5 9.3
2017-Dec-28 10:30N 33°26' W 119°06'6 9.6
2017-Dec-28 09:55N 33°28' W 118°59'4 9.5
2017-Dec-28 09:30N 33°29' W 118°55'5 9.6
2017-Dec-28 09:00N 33°31' W 118°50'5 9.5
2017-Dec-28 08:30N 33°33' W 118°44'8 9.5
2017-Dec-28 07:39N 33°36' W 118°35'2 9.5
2017-Dec-28 07:27N 33°36' W 118°33'5 9.4
2017-Dec-28 06:57N 33°38' W 118°28'4 9.3
2017-Dec-28 06:29N 33°40' W 118°23'10 8.0
2017-Dec-28 05:14N 33°45' W 118°13'21 4.6
2017-Dec-28 00:39N 33°36' W 118°36'210.1
2017-Dec-28 00:29N 33°35' W 118°38'510.0
2017-Dec-28 00:00N 33°33' W 118°43'5 9.9
2017-Dec-27 23:30N 33°32' W 118°49'510.0
2017-Dec-27 23:00N 33°30' W 118°54'610.1
2017-Dec-27 22:27N 33°28' W 119°00'510.1
2017-Dec-27 21:59N 33°26' W 119°06'510.1
2017-Dec-27 21:29N 33°24' W 119°11'35 2.6
2017-Dec-27 08:03N 33°27' W 118°30'0 0.6
2017-Dec-27 07:53N 33°27' W 118°30'3 8.9
2017-Dec-27 07:30N 33°30' W 118°27'510.1
2017-Dec-27 06:59N 33°33' W 118°23'510.2
2017-Dec-27 06:28N 33°38' W 118°19'9 6.2
2017-Dec-27 05:03N 33°45' W 118°13'0 6.9
2017-Dec-27 05:00N 33°45' W 118°13'2 0.5
2017-Dec-27 00:24N 33°43' W 118°14'3 1.3
2017-Dec-26 22:22N 33°46' W 118°13'  
2017-Dec-24 09:59N 33°24' W 119°02'4 9.1
2017-Dec-24 09:30N 33°26' W 118°57'5 9.4
2017-Dec-24 09:00N 33°28' W 118°52'5 9.5
2017-Dec-24 08:30N 33°30' W 118°47'5 9.4
2017-Dec-24 08:00N 33°32' W 118°42'5 9.4
2017-Dec-24 07:30N 33°34' W 118°37'8 9.4
2017-Dec-24 06:40N 33°37' W 118°28'2 9.1
2017-Dec-24 06:27N 33°38' W 118°26'13 8.1
2017-Dec-24 04:50N 33°45' W 118°13'32 6.3
2017-Dec-23 23:48N 33°32' W 118°47'3 9.7
2017-Dec-23 23:30N 33°31' W 118°51'510.1
2017-Dec-23 23:00N 33°29' W 118°56'510.1
2017-Dec-23 22:30N 33°28' W 119°02'510.4
2017-Dec-23 22:00N 33°26' W 119°08'510.2
2017-Dec-23 21:30N 33°24' W 119°14'5 9.9
2017-Dec-23 21:00N 33°23' W 119°19'5 9.9
2017-Dec-23 20:30N 33°21' W 119°25'12 7.4
2017-Dec-23 18:50N 33°17' W 119°39'1 1.9
2017-Dec-23 18:28N 33°18' W 119°38'0 0.7
2017-Dec-23 18:01N 33°18' W 119°39'1 2.2
2017-Dec-23 17:30N 33°18' W 119°37'1 1.8
2017-Dec-23 17:00N 33°18' W 119°36'0 0.3
2017-Dec-23 16:30N 33°18' W 119°36'0 0.5
2017-Dec-23 16:00N 33°18' W 119°36'0 0.6
2017-Dec-23 15:30N 33°18' W 119°36'1 1.1
2017-Dec-23 14:46N 33°18' W 119°35'0 0.0
2017-Dec-23 14:30N 33°18' W 119°35'0 0.0
2017-Dec-23 14:00N 33°18' W 119°35'2 3.0
2017-Dec-23 13:30N 33°18' W 119°33'4 8.5
2017-Dec-23 13:00N 33°20' W 119°28'4 8.6
2017-Dec-23 12:30N 33°21' W 119°23'4 8.4
2017-Dec-23 12:00N 33°22' W 119°18'4 8.6
2017-Dec-23 11:30N 33°23' W 119°13'4 8.6
2017-Dec-23 10:59N 33°24' W 119°08'5 9.2
2017-Dec-23 10:29N 33°26' W 119°03'4 9.2
2017-Dec-23 10:00N 33°27' W 118°58'5 9.4
2017-Dec-23 09:30N 33°29' W 118°53'5 9.5
2017-Dec-23 09:00N 33°31' W 118°48'29 4.3
2017-Dec-23 02:16N 33°41' W 118°15'3410.3
2017-Dec-22 22:57N 33°30' W 118°54'511.0
2017-Dec-22 22:30N 33°28' W 118°59'510.7
2017-Dec-22 22:00N 33°26' W 119°05'510.7
2017-Dec-22 21:30N 33°24' W 119°11'510.3
2017-Dec-22 21:00N 33°22' W 119°17'510.2
2017-Dec-22 20:30N 33°20' W 119°23'6 1.5
2017-Dec-22 16:44N 33°16' W 119°27'0 0.6
2017-Dec-22 16:28N 33°16' W 119°26'1 1.5
2017-Dec-22 15:59N 33°15' W 119°26'0 0.2
2017-Dec-22 14:18N 33°15' W 119°26'1 1.4
2017-Dec-22 13:51N 33°15' W 119°25'0 0.2
2017-Dec-22 13:30N 33°15' W 119°25'0 0.3
2017-Dec-22 12:59N 33°15' W 119°25'3 6.4
2017-Dec-22 12:30N 33°16' W 119°22'5 9.1
2017-Dec-22 12:00N 33°18' W 119°17'5 9.0
2017-Dec-22 11:30N 33°21' W 119°12'5 9.1
2017-Dec-22 11:00N 33°22' W 119°07'5 9.2
2017-Dec-22 10:30N 33°24' W 119°02'5 9.1
2017-Dec-22 10:00N 33°26' W 118°57'5 9.2
2017-Dec-22 09:30N 33°27' W 118°52'5 9.3
2017-Dec-22 09:00N 33°29' W 118°47'5 9.3
2017-Dec-22 08:30N 33°32' W 118°42'5 9.1
2017-Dec-22 07:59N 33°34' W 118°37'  

Dump ship's entire track history